Time;durP1;ratioP1;P1;durP2;ratioP2;P2;SDS_P1;SDS_P2;PMS_P1;PMS_P2;Temp;Humidity;BMP_temperature;BMP_pressure;BME280_temperature;BME280_humidity;BME280_pressure;Samples;Min_cycle;Max_cycle;Signal;HPM_P1;HPM_P2
2023/09/13 00:03:25;;;;;;;18.63;11.80;;;;;;;21.53;88.48;100306.95;4995556;57;1143094;-74
2023/09/13 00:08:30;;;;;;;20.30;12.20;;;;;;;21.53;88.18;100300.73;5015972;56;1143158;-74
2023/09/13 00:13:36;;;;;;;15.32;11.78;;;;;;;21.43;88.30;100297.02;4996549;57;1142897;-74
2023/09/13 00:18:41;;;;;;;19.42;11.60;;;;;;;21.27;88.57;100285.19;4996210;56;1143027;-75
2023/09/13 00:23:47;;;;;;;18.27;11.35;;;;;;;21.16;88.92;100287.86;5023231;56;1143172;-74
2023/09/13 00:28:53;;;;;;;23.15;13.25;;;;;;;21.13;89.56;100292.27;5009251;56;1143060;-75
2023/09/13 00:33:59;;;;;;;18.95;13.00;;;;;;;21.05;89.73;100283.00;4963319;57;1143070;-75
2023/09/13 00:39:05;;;;;;;18.07;12.77;;;;;;;20.93;90.14;100265.73;4948449;58;1142982;-74
2023/09/13 00:44:11;;;;;;;15.50;12.20;;;;;;;20.86;90.57;100266.16;5096646;56;1142810;-75
2023/09/13 00:49:17;;;;;;;25.00;11.80;;;;;;;20.78;91.11;100269.79;5097436;56;1143062;-74
2023/09/13 00:54:22;;;;;;;22.28;13.10;;;;;;;20.70;91.18;100267.23;5098850;56;1143201;-75
2023/09/13 00:59:28;;;;;;;23.32;12.63;;;;;;;20.71;91.89;100260.84;5118593;56;1142997;-75
2023/09/13 01:04:37;;;;;;;17.65;13.60;;;;;;;20.69;92.18;100258.85;5159427;56;1142796;-74
2023/09/13 01:09:44;;;;;;;20.40;13.75;;;;;;;20.70;92.59;100267.23;5097917;56;1142903;-75
2023/09/13 01:14:50;;;;;;;20.57;13.20;;;;;;;20.67;92.57;100264.92;5118625;56;1142944;-74
2023/09/13 01:20:24;;;;;;;18.15;13.48;;;;;;;20.66;92.91;100269.47;5098634;56;1142632;-74
2023/09/13 01:25:59;;;;;;;27.77;14.05;;;;;;;20.65;92.98;100254.37;5099186;56;1142693;-75
2023/09/13 01:31:11;;;;;;;25.53;14.40;;;;;;;20.65;92.98;100254.37;5153412;55;1142786;-75
2023/09/13 01:36:18;;;;;;;24.12;14.44;;;;;;;20.55;92.83;100255.70;5112953;56;1142822;-75
2023/09/13 01:41:40;;;;;;;23.27;13.28;;;;;;;20.50;93.03;100246.03;5149713;55;1143119;-75
2023/09/13 01:46:47;;;;;;;18.00;12.77;;;;;;;20.39;92.86;100239.30;5185086;55;1142966;-75
2023/09/13 01:51:53;;;;;;;22.52;14.00;;;;;;;20.34;93.34;100241.69;5185308;55;1143015;-75
2023/09/13 01:56:58;;;;;;;21.82;13.70;;;;;;;20.35;93.29;100237.98;5205984;55;1142932;-74
2023/09/13 02:02:04;;;;;;;15.63;13.35;;;;;;;20.40;93.80;100240.97;5032655;56;1143213;-74
2023/09/13 02:07:09;;;;;;;20.60;13.47;;;;;;;20.23;92.49;100244.86;5025837;56;1142936;-75
2023/09/13 02:12:15;;;;;;;13.35;11.85;;;;;;;20.14;93.75;100252.20;5045569;57;1143209;-74
2023/09/13 02:17:21;;;;;;;19.57;12.63;;;;;;;20.13;94.04;100238.45;5046490;56;1142862;-75
2023/09/13 02:22:27;;;;;;;15.67;12.03;;;;;;;20.05;93.83;100245.25;5099294;56;1142992;-75
2023/09/13 02:27:33;;;;;;;22.42;13.65;;;;;;;20.06;94.13;100241.55;5120193;56;1142914;-75
2023/09/13 02:32:38;;;;;;;24.35;14.68;;;;;;;20.12;94.88;100238.64;5057273;56;1142754;-74
2023/09/13 02:37:44;;;;;;;30.77;15.88;;;;;;;20.12;94.35;100234.10;4951008;57;1143032;-74
2023/09/13 02:42:50;;;;;;;24.12;14.98;;;;;;;20.00;93.25;100232.92;4935306;57;1143034;-75
2023/09/13 02:47:56;;;;;;;17.77;14.83;;;;;;;19.86;93.26;100224.38;5072288;57;1142982;-75
2023/09/13 02:53:03;;;;;;;22.22;13.85;;;;;;;19.81;93.42;100220.90;5078977;56;1142852;-75
2023/09/13 02:58:08;;;;;;;24.37;14.40;;;;;;;19.80;93.79;100215.72;5114117;56;1142853;-74
2023/09/13 03:03:14;;;;;;;21.25;13.45;;;;;;;19.78;93.78;100217.75;5164871;55;1143039;-75
2023/09/13 03:08:20;;;;;;;26.82;14.07;;;;;;;19.79;93.63;100211.36;5164653;55;1143056;-74
2023/09/13 03:13:26;;;;;;;17.55;15.48;;;;;;;19.68;92.63;100209.16;5142723;55;1142857;-74
2023/09/13 03:18:32;;;;;;;24.32;14.75;;;;;;;19.54;92.80;100204.95;5098710;56;1143333;-74
2023/09/13 03:23:44;;;;;;;20.30;15.18;;;;;;;19.46;92.92;100209.52;5078914;56;1143212;-75
2023/09/13 03:28:53;;;;;;;31.48;16.73;;;;;;;19.41;92.93;100195.81;5109031;55;1142875;-75
2023/09/13 03:33:59;;;;;;;25.62;17.77;;;;;;;19.37;93.00;100200.73;5171035;55;1142899;-74
2023/09/13 03:39:07;;;;;;;20.88;15.98;;;;;;;19.30;92.86;100201.13;5163919;55;1142939;-75
2023/09/13 03:44:12;;;;;;;27.90;16.73;;;;;;;19.21;92.96;100191.52;5163911;55;1143061;-74
2023/09/13 03:49:18;;;;;;;31.02;16.52;;;;;;;19.18;93.60;100191.37;5164710;55;1143156;-75
2023/09/13 03:54:25;;;;;;;22.07;16.82;;;;;;;19.16;93.70;100184.52;5184787;55;1143001;-75
2023/09/13 03:59:30;;;;;;;27.95;17.87;;;;;;;19.16;93.94;100183.17;5100048;55;1142983;-75
2023/09/13 04:04:36;;;;;;;28.87;17.90;;;;;;;19.06;94.18;100167.36;4913570;58;1143088;-75
2023/09/13 04:09:41;;;;;;;29.27;18.80;;;;;;;19.03;94.70;100165.05;4979869;57;1142899;-74
2023/09/13 04:14:47;;;;;;;52.33;20.05;;;;;;;19.04;94.92;100170.73;5076579;56;1142890;-74
2023/09/13 04:19:53;;;;;;;41.80;20.70;;;;;;;18.98;95.33;100160.73;5079621;56;1143206;-74
2023/09/13 04:24:59;;;;;;;28.20;17.90;;;;;;;19.00;95.92;100173.44;5098153;56;1142944;-74
2023/09/13 04:30:05;;;;;;;26.83;17.83;;;;;;;19.12;96.22;100177.84;5073592;56;1142883;-74
2023/09/13 04:35:12;;;;;;;29.77;18.67;;;;;;;18.97;94.77;100187.20;4990789;57;1143227;-74
2023/09/13 04:40:19;;;;;;;35.64;17.30;;;;;;;18.91;96.46;100187.44;5082257;56;1143151;-75
2023/09/13 04:45:25;;;;;;;44.77;19.15;;;;;;;18.73;95.12;100190.09;5018758;56;1143120;-78
2023/09/13 04:50:30;;;;;;;43.45;20.20;;;;;;;18.72;97.38;100189.27;5002068;57;1142710;-74
2023/09/13 04:55:36;;;;;;;56.23;21.82;;;;;;;18.86;98.56;100202.38;4979075;57;1142935;-73
2023/09/13 05:00:42;;;;;;;36.33;23.10;;;;;;;18.93;98.37;100188.09;5077962;56;1142790;-74
2023/09/13 05:05:48;;;;;;;35.05;24.07;;;;;;;18.96;98.55;100183.69;4969734;56;1142951;-74
2023/09/13 05:10:55;;;;;;;37.85;24.45;;;;;;;18.93;98.46;100178.72;5154851;55;1143176;-74
2023/09/13 05:16:00;;;;;;;31.45;20.88;;;;;;;18.87;99.14;100169.21;5016807;57;1142808;-72
2023/09/13 05:21:06;;;;;;;31.00;20.57;;;;;;;18.84;99.52;100162.87;4917820;57;1142780;-74
2023/09/13 05:26:11;;;;;;;33.25;19.75;;;;;;;18.92;100.00;100175.70;4944067;57;1142797;-72
2023/09/13 05:31:17;;;;;;;37.57;20.90;;;;;;;18.94;99.88;100193.75;5037367;56;1145172;-72
2023/09/13 05:36:23;;;;;;;41.88;23.85;;;;;;;18.91;100.00;100194.64;4990822;57;1142985;-72
2023/09/13 05:41:28;;;;;;;39.23;22.77;;;;;;;19.04;100.00;100195.36;5014269;57;1145098;-73
2023/09/13 05:46:34;;;;;;;35.17;19.90;;;;;;;19.27;100.00;100192.11;5036072;56;1144910;-72
2023/09/13 05:51:40;;;;;;;39.95;23.80;;;;;;;19.47;100.00;100187.88;5012740;57;1144950;-72
2023/09/13 05:56:46;;;;;;;37.85;21.95;;;;;;;19.63;100.00;100186.39;5023094;57;1144828;-72
2023/09/13 06:01:52;;;;;;;76.40;24.27;;;;;;;19.69;100.00;100189.36;5044485;56;1145030;-73
2023/09/13 06:06:58;;;;;;;40.48;21.68;;;;;;;19.78;100.00;100189.57;5044412;56;1145308;-72
2023/09/13 06:12:04;;;;;;;29.57;21.30;;;;;;;19.90;100.00;100186.22;5095470;56;1145136;-73
2023/09/13 06:17:09;;;;;;;34.63;18.87;;;;;;;20.17;100.00;100185.19;5116134;56;1145026;-74
2023/09/13 06:22:17;;;;;;;31.93;20.87;;;;;;;20.36;100.00;100222.22;5073172;56;1144889;-71
2023/09/13 06:27:22;;;;;;;23.47;18.10;;;;;;;20.17;100.00;100197.27;5019627;56;1144876;-71
2023/09/13 06:32:28;;;;;;;20.07;15.63;;;;;;;20.16;100.00;100257.39;5045231;56;1144952;-71
2023/09/13 06:37:34;;;;;;;18.42;14.05;;;;;;;20.23;100.00;100282.46;5070626;56;1144855;-73
2023/09/13 06:42:39;;;;;;;23.42;14.03;;;;;;;20.45;100.00;100272.14;4993817;57;1145154;-72
2023/09/13 06:47:45;;;;;;;25.40;14.10;;;;;;;20.65;100.00;100305.94;4991529;57;1145165;-71
2023/09/13 06:52:50;;;;;;;28.80;16.48;;;;;;;20.71;100.00;100332.90;5047928;57;1145130;-72
2023/09/13 06:57:56;;;;;;;21.62;15.75;;;;;;;20.67;100.00;100322.20;4991336;57;1145373;-73
2023/09/13 07:03:05;;;;;;;23.20;15.63;;;;;;;20.82;100.00;100324.02;4991870;57;1145070;-72
2023/09/13 07:08:10;;;;;;;26.82;15.55;;;;;;;20.92;100.00;100339.34;5045520;56;1144885;-72
2023/09/13 07:13:16;;;;;;;26.00;17.17;;;;;;;21.15;100.00;100312.25;5043974;56;1145056;-72
2023/09/13 07:18:23;;;;;;;30.48;19.57;;;;;;;21.51;100.00;100306.81;4978718;56;1144902;-72
2023/09/13 07:23:29;;;;;;;25.63;18.07;;;;;;;21.78;100.00;100291.69;4994128;57;1145208;-72
2023/09/13 07:28:34;;;;;;;26.73;18.75;;;;;;;22.02;100.00;100277.77;5013528;57;1145142;-73
2023/09/13 07:33:40;;;;;;;26.55;18.42;;;;;;;22.17;99.49;100265.50;4994282;57;1145184;-73
2023/09/13 07:38:46;;;;;;;26.07;16.93;;;;;;;22.19;97.66;100258.06;4995015;56;1143040;-72
2023/09/13 07:43:51;;;;;;;26.45;15.90;;;;;;;22.17;96.84;100252.04;5024216;56;1143051;-71
2023/09/13 07:48:57;;;;;;;20.60;13.80;;;;;;;22.10;96.36;100234.52;5029462;56;1143010;-72
2023/09/13 07:54:03;;;;;;;17.90;14.13;;;;;;;22.09;96.45;100230.16;5053292;56;1142969;-73
2023/09/13 07:59:13;;;;;;;20.60;14.50;;;;;;;22.08;96.40;100228.50;5015615;56;1143068;-73
2023/09/13 08:04:18;;;;;;;27.30;14.25;;;;;;;22.05;96.98;100224.34;4975408;57;1142834;-71
2023/09/13 08:09:24;;;;;;;18.80;11.70;;;;;;;22.08;97.60;100201.05;5007808;56;1142713;-72
2023/09/13 08:14:29;;;;;;;21.43;12.90;;;;;;;22.19;96.89;100217.14;4920892;58;1142973;-71
2023/09/13 08:19:35;;;;;;;23.05;13.68;;;;;;;22.19;96.24;100221.70;4954690;57;1143071;-73
2023/09/13 08:24:40;;;;;;;29.32;13.32;;;;;;;22.22;95.58;100215.91;5042701;56;1142951;-72
2023/09/13 08:29:46;;;;;;;18.15;13.32;;;;;;;22.22;95.81;100185.76;4985442;57;1143091;-72
2023/09/13 08:34:52;;;;;;;20.30;11.22;;;;;;;22.26;95.88;100192.92;5014337;58;1143082;-71
2023/09/13 08:39:57;;;;;;;15.28;11.38;;;;;;;22.34;95.14;100187.34;4929156;57;1143339;-71
2023/09/13 08:45:03;;;;;;;17.75;9.85;;;;;;;22.46;94.85;100187.05;5072071;56;1143244;-74
2023/09/13 08:50:09;;;;;;;12.85;10.32;;;;;;;22.59;93.76;100184.41;5105510;56;1140866;-71
2023/09/13 08:55:15;;;;;;;24.05;11.20;;;;;;;22.64;89.63;100171.12;5010868;56;1143092;-72
2023/09/13 09:00:21;;;;;;;16.83;9.53;;;;;;;22.66;89.99;100173.09;5098018;56;1142946;-71
2023/09/13 09:05:28;;;;;;;15.32;9.70;;;;;;;22.69;90.16;100168.65;5097883;56;1140891;-73
2023/09/13 09:10:34;;;;;;;12.00;9.80;;;;;;;22.73;90.61;100162.33;5057289;56;1140920;-72
2023/09/13 09:15:41;;;;;;;11.28;8.43;;;;;;;22.72;91.07;100164.72;4937267;57;1140932;-72
2023/09/13 09:20:47;;;;;;;10.43;8.75;;;;;;;22.79;91.12;100162.87;4954946;57;1140878;-72
2023/09/13 09:25:54;;;;;;;10.32;7.90;;;;;;;22.83;91.18;100168.17;5014260;57;1140674;-72
2023/09/13 09:31:02;;;;;;;17.65;9.33;;;;;;;22.83;90.66;100177.61;5014249;56;1140985;-72
2023/09/13 09:36:13;;;;;;;12.68;8.88;;;;;;;22.77;90.11;100195.42;5037620;57;1141010;-72
2023/09/13 09:41:17;;;;;;;11.43;8.55;;;;;;;22.72;90.59;100201.95;5118711;56;1140761;-71
2023/09/13 09:46:23;;;;;;;15.53;8.85;;;;;;;22.67;90.51;100186.06;5013612;57;1141023;-72
2023/09/13 09:51:29;;;;;;;10.83;8.87;;;;;;;22.64;90.90;100182.42;4933506;58;1141019;-72
2023/09/13 09:56:35;;;;;;;11.97;8.05;;;;;;;22.58;91.21;100176.52;5043337;57;1140807;-71
2023/09/13 10:01:43;;;;;;;14.03;8.70;;;;;;;22.54;91.37;100188.22;5018092;56;1140905;-71
2023/09/13 10:06:57;;;;;;;9.63;8.38;;;;;;;22.54;91.45;100198.17;4991969;57;1141074;-72
2023/09/13 10:12:04;;;;;;;15.55;9.63;;;;;;;22.50;91.78;100197.74;5059840;56;1139140;-73
2023/09/13 10:17:10;;;;;;;23.38;10.00;;;;;;;22.41;92.27;100211.11;5018182;55;1140895;-71
2023/09/13 10:22:19;;;;;;;14.63;9.43;;;;;;;22.37;92.61;100216.58;5030063;56;1143020;-73
2023/09/13 10:27:26;;;;;;;18.48;10.90;;;;;;;22.36;92.97;100218.95;5005915;57;1141006;-72
2023/09/13 10:32:36;;;;;;;15.05;9.23;;;;;;;22.36;93.63;100213.57;4989939;56;1142896;-72
2023/09/13 10:37:55;;;;;;;12.28;8.98;;;;;;;22.29;94.42;100214.91;4935640;58;1140843;-72
2023/09/13 10:43:01;;;;;;;11.53;8.98;;;;;;;22.25;95.44;100238.41;5002078;57;1140786;-73
2023/09/13 10:48:08;;;;;;;10.05;8.33;;;;;;;22.24;96.35;100249.70;5022919;57;1141093;-74
2023/09/13 10:53:14;;;;;;;16.87;9.30;;;;;;;22.26;96.45;100258.94;5069058;56;1141077;-74
2023/09/13 10:58:21;;;;;;;9.85;8.48;;;;;;;22.26;96.78;100265.67;5024577;56;1140889;-74
2023/09/13 11:03:27;;;;;;;21.60;9.63;;;;;;;22.26;97.36;100286.70;5079518;56;1138963;-74
2023/09/13 11:08:34;;;;;;;18.37;9.65;;;;;;;22.24;97.83;100293.33;5105181;56;1140761;-73
2023/09/13 11:13:40;;;;;;;16.02;10.50;;;;;;;22.22;98.69;100292.69;5039347;56;1140961;-73
2023/09/13 11:18:53;;;;;;;17.62;11.50;;;;;;;22.18;98.39;100284.69;5102230;56;1142990;-74
2023/09/13 11:24:01;;;;;;;13.48;9.80;;;;;;;22.20;98.88;100285.31;5016181;56;1143028;-74
2023/09/13 11:29:24;;;;;;;14.98;9.38;;;;;;;22.17;99.23;100282.50;4932178;56;1140900;-73
2023/09/13 11:34:31;;;;;;;13.43;9.90;;;;;;;22.18;100.00;100277.95;4908356;56;1140987;-74
2023/09/13 11:39:38;;;;;;;15.40;10.10;;;;;;;22.20;100.00;100279.41;5019851;57;1142890;-74
2023/09/13 11:44:45;;;;;;;15.20;9.63;;;;;;;22.25;100.00;100289.60;5017737;57;1145174;-74
2023/09/13 11:49:58;;;;;;;11.95;8.70;;;;;;;22.36;100.00;100277.72;5014857;56;1143127;-73
2023/09/13 11:55:07;;;;;;;14.03;8.43;;;;;;;22.36;100.00;100277.72;4913317;57;1142977;-74
2023/09/13 12:00:19;;;;;;;15.03;8.60;;;;;;;22.50;100.00;100288.55;4935688;57;1142919;-74
2023/09/13 12:05:25;;;;;;;11.10;7.60;;;;;;;22.58;99.85;100283.83;4933484;57;1142990;-75
2023/09/13 12:10:36;;;;;;;22.02;10.50;;;;;;;22.68;98.88;100288.82;4980944;56;1140898;-73
2023/09/13 12:16:01;;;;;;;21.12;8.70;;;;;;;22.72;98.74;100286.88;5045163;56;1143145;-74
2023/09/13 12:21:09;;;;;;;8.10;7.15;;;;;;;22.77;97.98;100274.97;5082604;56;1141136;-72
2023/09/13 12:26:17;;;;;;;15.63;8.00;;;;;;;22.87;98.68;100275.94;5079204;55;1138670;-74
2023/09/13 12:31:24;;;;;;;13.83;8.23;;;;;;;23.05;98.14;100276.70;5017411;56;1141068;-74
2023/09/13 12:36:30;;;;;;;12.58;7.65;;;;;;;23.25;95.96;100268.08;5085899;56;1140954;-74
2023/09/13 12:41:35;;;;;;;12.85;7.47;;;;;;;23.34;95.56;100272.25;4995649;57;1140701;-74
2023/09/13 12:46:42;;;;;;;11.28;7.92;;;;;;;23.40;94.28;100269.22;4995068;57;1140675;-74
2023/09/13 12:51:47;;;;;;;8.08;6.22;;;;;;;23.38;93.53;100271.29;5085699;56;1140916;-73
2023/09/13 12:56:53;;;;;;;13.43;6.78;;;;;;;23.42;94.13;100267.97;5082818;56;1138908;-74
2023/09/13 13:01:59;;;;;;;18.73;7.92;;;;;;;23.56;94.57;100270.69;5046083;56;1140846;-74
2023/09/13 13:07:05;;;;;;;13.25;7.22;;;;;;;23.87;95.74;100273.55;5080188;56;1140675;-74
2023/09/13 13:12:18;;;;;;;11.65;7.45;;;;;;;23.98;91.27;100270.73;5078159;56;1140872;-74
2023/09/13 13:17:25;;;;;;;15.17;7.30;;;;;;;23.97;88.96;100273.12;5052612;56;1140793;-74
2023/09/13 13:22:32;;;;;;;9.10;7.07;;;;;;;24.04;88.81;100268.00;4920628;57;1141237;-74
2023/09/13 13:27:38;;;;;;;9.95;7.22;;;;;;;24.15;89.66;100263.80;4935373;58;1138574;-74
2023/09/13 13:32:44;;;;;;;15.72;7.35;;;;;;;24.17;89.99;100262.55;4916888;57;1138783;-74
2023/09/13 13:37:49;;;;;;;11.90;6.25;;;;;;;24.18;90.17;100250.69;4916932;57;1140744;-73
2023/09/13 13:42:55;;;;;;;5.62;5.12;;;;;;;24.13;89.42;100265.91;4961821;56;1141060;-75
2023/09/13 13:48:01;;;;;;;7.35;5.03;;;;;;;23.98;86.33;100241.02;4979094;56;1138765;-74
2023/09/13 13:53:07;;;;;;;9.18;4.42;;;;;;;23.95;86.46;100236.86;4982106;57;1138808;-75
2023/09/13 13:58:13;;;;;;;5.70;3.47;;;;;;;24.15;86.25;100240.30;4958472;56;1139054;-74
2023/09/13 14:03:20;;;;;;;9.60;5.00;;;;;;;24.41;83.30;100237.22;5085929;56;1138618;-74
2023/09/13 14:08:27;;;;;;;10.00;5.05;;;;;;;24.60;83.44;100237.61;4991368;57;1138637;-74
2023/09/13 14:13:32;;;;;;;6.63;4.50;;;;;;;24.80;83.88;100233.44;5074148;56;1140846;-74
2023/09/13 14:18:38;;;;;;;7.03;4.33;;;;;;;24.89;83.11;100237.03;4998563;58;1138796;-74
2023/09/13 14:23:43;;;;;;;7.28;4.75;;;;;;;25.11;82.09;100240.73;5056167;56;1138888;-74
2023/09/13 14:28:49;;;;;;;5.03;4.42;;;;;;;25.16;80.70;100234.14;4996326;57;1138838;-74
2023/09/13 14:33:56;;;;;;;10.15;4.60;;;;;;;25.21;81.32;100228.88;5098977;56;1138913;-74
2023/09/13 14:39:01;;;;;;;5.90;4.85;;;;;;;25.26;81.53;100230.92;4995975;57;1140645;-74
2023/09/13 14:44:07;;;;;;;15.05;5.08;;;;;;;25.31;79.97;100228.39;5073464;56;1165160;-74
2023/09/13 14:49:19;;;;;;;8.64;5.36;;;;;;;25.30;81.17;100223.50;5099133;56;1140943;-74
2023/09/13 14:54:20;;;;;;;6.60;4.45;;;;;;;25.34;80.52;100224.73;5078824;56;1138782;-74
2023/09/13 14:59:26;;;;;;;22.17;5.30;;;;;;;25.28;79.61;100232.89;5098985;56;1138589;-75
2023/09/13 15:04:32;;;;;;;4.30;3.90;;;;;;;25.21;81.57;100229.70;5097779;56;1140702;-74
2023/09/13 15:09:38;;;;;;;7.58;4.75;;;;;;;25.20;81.57;100237.55;5117479;56;1138655;-74
2023/09/13 15:14:43;;;;;;;4.70;4.30;;;;;;;25.11;81.72;100244.80;5044146;56;1138591;-75
2023/09/13 15:19:49;;;;;;;6.50;4.85;;;;;;;25.10;82.61;100229.61;5015405;56;1138588;-75
2023/09/13 15:24:55;;;;;;;4.45;4.03;;;;;;;25.16;82.02;100246.33;5057662;56;1138898;-74
2023/09/13 15:30:10;;;;;;;5.83;4.95;;;;;;;25.04;81.51;100248.09;5030711;56;1138828;-75
2023/09/13 15:35:08;;;;;;;4.37;3.98;;;;;;;24.74;82.95;100249.20;4881232;56;1138698;-75
2023/09/13 15:40:14;;;;;;;8.53;4.37;;;;;;;24.42;83.72;100251.05;5027899;56;1138644;-75
2023/09/13 15:45:20;;;;;;;6.22;4.60;;;;;;;24.24;84.97;100253.63;5024535;57;1159913;-74
2023/09/13 15:50:25;;;;;;;3.60;3.30;;;;;;;24.09;86.48;100253.86;5023231;56;1139056;-74
2023/09/13 15:55:31;;;;;;;6.30;3.33;;;;;;;23.94;87.16;100257.33;4936984;57;1138766;-75
2023/09/13 16:00:37;;;;;;;3.20;2.50;;;;;;;23.78;86.76;100263.50;5047585;56;1138701;-74
2023/09/13 16:05:44;;;;;;;2.35;2.25;;;;;;;23.69;87.34;100269.32;5018422;57;1138691;-75
2023/09/13 16:10:50;;;;;;;2.67;2.50;;;;;;;23.60;87.68;100259.79;5007712;57;1138665;-75
2023/09/13 16:15:56;;;;;;;3.47;2.15;;;;;;;23.51;86.96;100263.24;4971635;57;1138834;-75
2023/09/13 16:21:02;;;;;;;2.30;2.08;;;;;;;23.59;86.11;100260.31;4941934;57;1138783;-74
2023/09/13 16:26:07;;;;;;;1.55;1.40;;;;;;;23.66;84.45;100261.66;4955902;57;1138912;-75
2023/09/13 16:31:13;;;;;;;2.22;1.87;;;;;;;23.59;83.41;100271.63;5111778;56;1138716;-75
2023/09/13 16:36:19;;;;;;;1.85;1.75;;;;;;;23.43;83.10;100282.30;5024503;55;1138612;-75
2023/09/13 16:41:25;;;;;;;1.60;1.50;;;;;;;23.27;82.77;100297.55;5047181;56;1138929;-75
2023/09/13 16:46:31;;;;;;;1.10;1.10;;;;;;;23.02;82.98;100294.64;4986893;57;1138848;-74
2023/09/13 16:51:37;;;;;;;1.47;1.30;;;;;;;22.82;83.70;100297.29;4995444;56;1138674;-74
2023/09/13 16:56:42;;;;;;;1.05;1.05;;;;;;;22.68;84.47;100299.61;4940772;57;1139061;-74
2023/09/13 17:01:48;;;;;;;3.35;1.20;;;;;;;22.54;85.57;100298.73;4976797;57;1138548;-74
2023/09/13 17:06:54;;;;;;;5.47;1.67;;;;;;;22.41;85.91;100297.34;5028303;55;1138734;-74
2023/09/13 17:12:01;;;;;;;1.42;1.32;;;;;;;22.30;86.64;100310.05;4995448;56;1138819;-75
2023/09/13 17:17:09;;;;;;;9.23;1.47;;;;;;;22.21;87.23;100323.34;5043635;56;1138455;-75
2023/09/13 17:22:15;;;;;;;6.47;1.35;;;;;;;22.11;87.77;100323.72;5080842;56;1138692;-74
2023/09/13 17:27:20;;;;;;;1.35;1.30;;;;;;;22.05;87.94;100337.45;4998628;57;1138748;-74
2023/09/13 17:32:26;;;;;;;2.22;1.40;;;;;;;22.04;88.38;100348.42;5073219;57;1138831;-74
2023/09/13 17:37:31;;;;;;;0.90;0.90;;;;;;;21.97;88.57;100344.33;5094335;56;1138724;-74
2023/09/13 17:42:37;;;;;;;1.02;1.02;;;;;;;21.87;89.50;100363.19;5045393;56;1138564;-73
2023/09/13 17:47:43;;;;;;;4.03;1.70;;;;;;;21.83;90.03;100366.81;4984211;57;1139043;-74
2023/09/13 17:52:48;;;;;;;1.40;1.32;;;;;;;21.80;90.57;100368.54;5127567;56;1138879;-74
2023/09/13 17:57:54;;;;;;;1.42;1.32;;;;;;;21.81;91.03;100382.84;5045997;56;1138756;-75
2023/09/13 18:03:00;;;;;;;5.83;1.50;;;;;;;21.74;91.46;100388.16;4964460;57;1138943;-74
2023/09/13 18:08:10;;;;;;;7.78;1.45;;;;;;;21.66;92.55;100391.00;4967016;57;1138873;-74
2023/09/13 18:13:14;;;;;;;5.75;1.27;;;;;;;21.63;92.75;100392.72;4964103;57;1138880;-74
2023/09/13 18:18:19;;;;;;;4.62;1.40;;;;;;;21.65;93.27;100401.44;5035612;56;1138658;-74
2023/09/13 18:23:26;;;;;;;1.87;1.32;;;;;;;21.59;93.75;100401.69;5019487;57;1138988;-74
2023/09/13 18:28:31;;;;;;;1.62;1.55;;;;;;;21.53;96.48;100407.86;5031118;56;1138793;-74
2023/09/13 18:33:37;;;;;;;1.30;1.12;;;;;;;21.44;97.28;100417.07;5012564;57;1139155;-74
2023/09/13 18:38:43;;;;;;;1.77;1.67;;;;;;;21.34;98.17;100425.98;5009640;56;1138576;-74
2023/09/13 18:43:48;;;;;;;2.40;1.90;;;;;;;21.26;100.00;100432.30;5083983;56;1139126;-74
2023/09/13 18:48:54;;;;;;;2.25;1.90;;;;;;;20.99;100.00;100446.44;4996489;57;1140667;-74
2023/09/13 18:54:01;;;;;;;1.75;1.65;;;;;;;20.68;100.00;100452.03;5030895;56;1140945;-75
2023/09/13 18:59:07;;;;;;;1.47;1.40;;;;;;;20.44;100.00;100465.25;5042729;56;1140875;-74
2023/09/13 19:04:14;;;;;;;1.60;1.40;;;;;;;20.28;100.00;100474.27;4963040;56;1140931;-76
2023/09/13 19:09:19;;;;;;;1.45;1.45;;;;;;;20.24;100.00;100491.76;5011179;56;1140995;-74
2023/09/13 19:14:25;;;;;;;2.25;1.85;;;;;;;20.24;100.00;100505.19;4944836;57;1140885;-74
2023/09/13 19:19:32;;;;;;;3.53;1.90;;;;;;;20.15;100.00;100515.69;4963514;57;1140852;-75
2023/09/13 19:24:37;;;;;;;3.62;2.05;;;;;;;20.10;100.00;100527.47;4940482;57;1140947;-75
2023/09/13 19:29:42;;;;;;;2.25;2.05;;;;;;;19.99;100.00;100522.03;4928080;57;1140883;-75
2023/09/13 19:34:49;;;;;;;2.90;2.55;;;;;;;19.95;100.00;100534.12;4984543;57;1141024;-74
2023/09/13 19:39:54;;;;;;;3.37;3.08;;;;;;;19.97;100.00;100540.16;4946163;57;1140830;-74
2023/09/13 19:45:00;;;;;;;2.55;2.20;;;;;;;20.00;100.00;100543.00;4990114;57;1141235;-74
2023/09/13 19:50:06;;;;;;;2.42;2.20;;;;;;;19.97;100.00;100543.35;4991350;57;1140736;-74
2023/09/13 19:55:12;;;;;;;3.87;2.22;;;;;;;19.89;100.00;100549.59;5057646;56;1140920;-74
2023/09/13 20:00:18;;;;;;;2.85;2.25;;;;;;;19.82;100.00;100557.22;5078332;57;1140613;-74
2023/09/13 20:05:24;;;;;;;4.90;1.92;;;;;;;19.77;100.00;100560.93;4944744;57;1148671;-74
2023/09/13 20:10:30;;;;;;;2.62;2.42;;;;;;;19.72;100.00;100560.11;5064775;56;1140803;-75
2023/09/13 20:15:35;;;;;;;2.95;2.75;;;;;;;19.70;100.00;100572.89;4964677;57;1140897;-74
2023/09/13 20:20:42;;;;;;;2.90;2.67;;;;;;;19.58;100.00;100574.28;5035044;56;1140953;-75
2023/09/13 20:25:49;;;;;;;6.05;2.33;;;;;;;19.54;100.00;100575.66;5019674;56;1140986;-75
2023/09/13 20:30:55;;;;;;;2.27;2.10;;;;;;;19.44;100.00;100575.83;5004169;56;1140834;-75
2023/09/13 20:36:01;;;;;;;2.55;2.30;;;;;;;19.41;100.00;100580.20;5039841;57;1140707;-75
2023/09/13 20:41:06;;;;;;;3.00;2.80;;;;;;;19.43;100.00;100587.56;5042847;55;1140949;-75
2023/09/13 20:46:12;;;;;;;3.55;3.20;;;;;;;19.36;100.00;100596.50;4968241;57;1141040;-74
2023/09/13 20:51:19;;;;;;;3.42;3.02;;;;;;;19.43;100.00;100590.25;5002189;56;1141307;-76
2023/09/13 20:56:24;;;;;;;2.98;2.77;;;;;;;19.43;100.00;100600.14;5096655;56;1141243;-75
2023/09/13 21:01:30;;;;;;;4.20;3.00;;;;;;;19.39;100.00;100596.16;5118860;56;1140824;-75
2023/09/13 21:06:36;;;;;;;3.70;3.38;;;;;;;19.29;100.00;100599.03;5022966;56;1140947;-75
2023/09/13 21:11:42;;;;;;;4.95;3.65;;;;;;;19.26;100.00;100606.07;4996232;56;1140747;-75
2023/09/13 21:16:48;;;;;;;3.47;2.72;;;;;;;19.17;100.00;100609.80;5029923;56;1140798;-75
2023/09/13 21:21:53;;;;;;;4.28;3.35;;;;;;;19.15;100.00;100618.52;4932496;57;1140872;-75
2023/09/13 21:26:59;;;;;;;3.90;3.58;;;;;;;19.11;100.00;100623.37;4992625;57;1140908;-75
2023/09/13 21:32:05;;;;;;;4.50;3.62;;;;;;;19.12;100.00;100633.09;5015100;57;1140905;-75
2023/09/13 21:37:10;;;;;;;7.62;3.62;;;;;;;19.11;100.00;100637.28;4995776;57;1140997;-75
2023/09/13 21:42:19;;;;;;;4.22;3.55;;;;;;;19.03;100.00;100635.48;5012019;57;1140757;-76
2023/09/13 21:47:25;;;;;;;3.90;3.60;;;;;;;18.94;100.00;100629.27;4952451;57;1140768;-75
2023/09/13 21:52:30;;;;;;;5.92;3.90;;;;;;;18.92;100.00;100630.48;5015153;58;1140871;-75
2023/09/13 21:57:38;;;;;;;4.85;3.87;;;;;;;18.95;100.00;100636.31;4995617;57;1141100;-75
2023/09/13 22:02:47;;;;;;;5.50;4.20;;;;;;;18.97;100.00;100642.34;4996425;57;1140919;-73
2023/09/13 22:07:54;;;;;;;5.04;3.44;;;;;;;19.09;100.00;100648.20;4940752;58;1141281;-74
2023/09/13 22:12:59;;;;;;;8.80;3.72;;;;;;;19.15;100.00;100653.38;5012879;57;1140713;-74
2023/09/13 22:18:05;;;;;;;3.26;3.06;;;;;;;19.14;100.00;100646.33;5014928;57;1140822;-74
2023/09/13 22:23:11;;;;;;;4.08;3.72;;;;;;;19.07;100.00;100654.74;5044056;56;1140864;-75
2023/09/13 22:28:17;;;;;;;6.50;3.65;;;;;;;18.98;100.00;100656.59;5052201;55;1140849;-76
2023/09/13 22:33:23;;;;;;;6.67;3.67;;;;;;;19.02;100.00;100649.05;5096006;56;1141007;-75
2023/09/13 22:38:29;;;;;;;4.57;3.50;;;;;;;19.21;100.00;100670.13;5026155;56;1140882;-75
2023/09/13 22:43:34;;;;;;;3.27;3.00;;;;;;;19.20;100.00;100671.13;5045019;56;1140890;-75
2023/09/13 22:48:40;;;;;;;3.92;3.55;;;;;;;19.15;100.00;100674.31;5048107;56;1140576;-75
2023/09/13 22:53:46;;;;;;;5.58;3.40;;;;;;;19.03;100.00;100670.33;5098386;56;1140846;-75